Time;durP1;ratioP1;P1;durP2;ratioP2;P2;SDS_P1;SDS_P2;PMS_P1;PMS_P2;Temp;Humidity;BMP_temperature;BMP_pressure;BME280_temperature;BME280_humidity;BME280_pressure;Samples;Min_cycle;Max_cycle;Signal;HPM_P1;HPM_P2
2022/04/19 00:01:11;;;;;;;;;11.75;10.00;;;;;-146.67;100.00;57155.34;5099631;27;62443;-83
2022/04/19 00:03:37;;;;;;;;;11.25;9.50;;;;;-146.67;100.00;57155.34;5099543;27;62181;-84
2022/04/19 00:06:04;;;;;;;;;15.00;11.75;;;;;-146.67;100.00;57155.34;5083154;28;62050;-83
2022/04/19 00:08:29;;;;;;;;;12.75;11.75;;;;;-146.67;100.00;57155.34;5083576;28;61808;-84
2022/04/19 00:10:55;;;;;;;;;16.25;15.00;;;;;-146.67;100.00;57155.34;5083737;28;61805;-83
2022/04/19 00:13:20;;;;;;;;;9.50;8.25;;;;;-146.67;100.00;57155.34;5082547;27;62118;-84
2022/04/19 00:15:46;;;;;;;;;13.75;10.00;;;;;-146.67;100.00;57155.34;5083242;28;62708;-83
2022/04/19 00:18:12;;;;;;;;;11.50;10.50;;;;;-146.67;100.00;57155.34;5083369;28;61968;-83
2022/04/19 00:20:40;;;;;;;;;18.75;12.50;;;;;-146.67;100.00;57155.34;5084005;27;61729;-83
2022/04/19 00:23:12;;;;;;;;;15.00;14.75;;;;;-146.67;100.00;57155.34;5099340;27;62338;-83
2022/04/19 00:25:39;;;;;;;;;17.00;12.75;;;;;-146.67;100.00;57155.34;5083057;28;62619;-83
2022/04/19 00:28:05;;;;;;;;;11.25;9.25;;;;;-146.67;100.00;57155.34;5082413;27;62034;-83
2022/04/19 00:30:31;;;;;;;;;10.25;9.00;;;;;-146.67;100.00;57155.34;5083404;28;61892;-84
2022/04/19 00:32:57;;;;;;;;;8.25;7.75;;;;;-146.67;100.00;57155.34;5083604;28;61686;-84
2022/04/19 00:35:23;;;;;;;;;8.50;8.50;;;;;-146.67;100.00;57155.34;5082946;28;61754;-84
2022/04/19 00:37:50;;;;;;;;;7.75;7.75;;;;;-146.67;100.00;57155.34;5083277;28;61890;-83
2022/04/19 00:40:16;;;;;;;;;13.75;10.25;;;;;-146.67;100.00;57155.34;5082994;28;62092;-84
2022/04/19 00:42:41;;;;;;;;;16.00;9.50;;;;;-146.67;100.00;57155.34;5083601;27;61942;-84
2022/04/19 00:45:07;;;;;;;;;9.25;9.25;;;;;-146.67;100.00;57155.34;5082413;28;61894;-84
2022/04/19 00:47:34;;;;;;;;;9.25;9.25;;;;;-146.67;100.00;57155.34;5083456;27;62286;-84
2022/04/19 00:50:03;;;;;;;;;17.00;13.50;;;;;-146.67;100.00;57155.34;5083362;27;61826;-84
2022/04/19 00:52:32;;;;;;;;;10.50;6.25;;;;;-146.67;100.00;57155.34;5083725;27;62172;-84
2022/04/19 00:54:59;;;;;;;;;15.50;14.00;;;;;-146.67;100.00;57155.34;5082721;27;61906;-84
2022/04/19 00:57:25;;;;;;;;;13.00;11.75;;;;;-146.67;100.00;57155.34;5081716;28;62041;-83
2022/04/19 00:59:55;;;;;;;;;13.00;10.75;;;;;-146.67;100.00;57155.34;5081686;28;61778;-84
2022/04/19 01:02:22;;;;;;;;;13.25;8.25;;;;;-146.67;100.00;57155.34;5083161;27;61836;-84
2022/04/19 01:04:49;;;;;;;;;10.00;8.50;;;;;-146.67;100.00;57155.34;5082420;27;61995;-84
2022/04/19 01:07:18;;;;;;;;;8.75;6.50;;;;;-146.67;100.00;57155.34;5082803;27;61888;-84
2022/04/19 01:09:44;;;;;;;;;7.50;6.50;;;;;-146.67;100.00;57155.34;5082846;28;62023;-83
2022/04/19 01:14:55;;;;;;;;;9.00;5.75;;;;;-146.67;100.00;57155.34;5081995;28;61856;-84
2022/04/19 01:17:22;;;;;;;;;12.50;9.25;;;;;-146.67;100.00;57155.34;5082734;28;61985;-83
2022/04/19 01:19:48;;;;;;;;;9.25;7.25;;;;;-146.67;100.00;57155.34;5082956;27;61925;-83
2022/04/19 01:22:14;;;;;;;;;7.50;5.00;;;;;-146.67;100.00;57155.34;5082859;28;61953;-84
2022/04/19 01:24:43;;;;;;;;;6.00;4.00;;;;;-146.67;100.00;57155.34;5097998;27;63690;-83
2022/04/19 01:27:09;;;;;;;;;7.00;7.00;;;;;-146.67;100.00;57155.34;5081195;28;61821;-83
2022/04/19 01:29:35;;;;;;;;;6.00;6.00;;;;;-146.67;100.00;57155.34;5082469;27;62004;-84
2022/04/19 01:32:03;;;;;;;;;5.00;5.00;;;;;-146.67;100.00;57155.34;5083087;27;61895;-83
2022/04/19 01:34:28;;;;;;;;;5.00;5.00;;;;;-146.67;100.00;57155.34;5082035;27;61882;-83
2022/04/19 01:36:53;;;;;;;;;8.75;7.50;;;;;-146.67;100.00;57155.34;5082563;27;62253;-84
2022/04/19 01:40:16;;;;;;;;;8.50;6.50;;;;;-146.67;100.00;57155.34;5082063;27;61940;-83
2022/04/19 01:42:06;;;;;;;;;5.25;3.00;;;;;-146.67;100.00;57155.34;5082603;27;61793;-83
2022/04/19 01:44:33;;;;;;;;;5.50;3.00;;;;;-146.67;100.00;57155.34;5081787;27;62611;-84
2022/04/19 01:47:07;;;;;;;;;6.50;6.25;;;;;-146.67;100.00;57155.34;5082558;28;61904;-84
2022/04/19 01:49:34;;;;;;;;;3.50;3.50;;;;;-146.67;100.00;57155.34;5082389;28;61884;-83
2022/04/19 01:52:01;;;;;;;;;7.00;5.25;;;;;-146.67;100.00;57155.34;5082710;28;61846;-83
2022/04/19 01:54:26;;;;;;;;;6.75;5.00;;;;;-146.67;100.00;57155.34;5097339;27;64656;-83
2022/04/19 01:56:52;;;;;;;;;3.50;3.50;;;;;-146.67;100.00;57155.34;5082280;28;62125;-83
2022/04/19 01:59:17;;;;;;;;;5.00;5.00;;;;;-146.67;100.00;57155.34;5097714;27;62273;-83
2022/04/19 02:01:43;;;;;;;;;6.00;6.00;;;;;-146.67;100.00;57155.34;5082470;28;61835;-83
2022/04/19 02:04:08;;;;;;;;;9.00;7.75;;;;;-146.67;100.00;57155.34;5097388;27;64915;-83
2022/04/19 02:06:33;;;;;;;;;6.25;5.75;;;;;-146.67;100.00;57155.34;5097622;27;61898;-83
2022/04/19 02:09:02;;;;;;;;;6.25;3.25;;;;;-146.67;100.00;57155.34;5097825;27;62692;-83
2022/04/19 02:11:27;;;;;;;;;5.25;5.25;;;;;-146.67;100.00;57155.34;5097989;27;62035;-83
2022/04/19 02:13:53;;;;;;;;;6.25;5.00;;;;;-146.67;100.00;57155.34;5096964;27;64710;-83
2022/04/19 02:16:19;;;;;;;;;4.00;4.00;;;;;-146.67;100.00;57155.34;5080591;28;62068;-83
2022/04/19 02:18:45;;;;;;;;;7.00;3.25;;;;;-146.67;100.00;57155.34;5080840;28;61868;-83
2022/04/19 02:21:10;;;;;;;;;4.00;2.00;;;;;-146.67;100.00;57155.34;5082404;28;61837;-83
2022/04/19 02:23:36;;;;;;;;;8.00;5.50;;;;;-146.67;100.00;57155.34;5098558;27;64939;-82
2022/04/19 02:26:03;;;;;;;;;4.75;4.25;;;;;-146.67;100.00;57155.34;5088164;28;61965;-83
2022/04/19 02:28:28;;;;;;;;;7.25;6.25;;;;;-146.67;100.00;57155.34;5081715;28;61802;-83
2022/04/19 02:30:54;;;;;;;;;15.25;5.00;;;;;-146.67;100.00;57155.34;5082503;28;62002;-83
2022/04/19 02:33:19;;;;;;;;;6.00;3.00;;;;;-146.67;100.00;57155.34;5081326;28;61904;-83
2022/04/19 02:35:45;;;;;;;;;4.50;3.25;;;;;-146.67;100.00;57155.34;5097595;27;61979;-83
2022/04/19 02:38:11;;;;;;;;;11.25;6.75;;;;;-146.67;100.00;57155.34;5081805;28;61941;-83
2022/04/19 02:40:37;;;;;;;;;3.00;3.00;;;;;-146.67;100.00;57155.34;5081539;28;61758;-83
2022/04/19 02:43:03;;;;;;;;;5.25;4.25;;;;;-146.67;100.00;57155.34;5096719;27;63780;-83
2022/04/19 02:45:28;;;;;;;;;6.25;4.25;;;;;-146.67;100.00;57155.34;5081535;28;61817;-83
2022/04/19 02:48:08;;;;;;;;;6.75;5.25;;;;;-146.67;100.00;57155.34;5081845;28;61765;-83
2022/04/19 02:50:43;;;;;;;;;3.00;3.00;;;;;-146.67;100.00;57155.34;5098164;27;61743;-83
2022/04/19 02:53:09;;;;;;;;;3.50;3.50;;;;;-146.67;100.00;57155.34;5084695;28;62723;-83
2022/04/19 02:55:36;;;;;;;;;7.00;5.00;;;;;-146.67;100.00;57155.34;5084630;27;62040;-83
2022/04/19 02:58:02;;;;;;;;;7.75;5.00;;;;;-146.67;100.00;57155.34;5085184;28;62304;-83
2022/04/19 03:00:28;;;;;;;;;6.25;6.00;;;;;-146.67;100.00;57155.34;5100753;27;61858;-83
2022/04/19 03:02:53;;;;;;;;;6.00;3.00;;;;;-146.67;100.00;57155.34;5100138;27;63684;-83
2022/04/19 03:05:19;;;;;;;;;4.25;3.00;;;;;-146.67;100.00;57155.34;5084869;28;61890;-83
2022/04/19 03:07:46;;;;;;;;;6.00;4.50;;;;;-146.67;100.00;57155.34;5084526;28;61726;-83
2022/04/19 03:10:12;;;;;;;;;2.50;2.00;;;;;-146.67;100.00;57155.34;5100690;27;61757;-83
2022/04/19 03:12:39;;;;;;;;;5.00;5.00;;;;;-146.67;100.00;57155.34;5099653;27;63800;-83
2022/04/19 03:15:05;;;;;;;;;6.25;5.00;;;;;-146.67;100.00;57155.34;5084915;28;61723;-83
2022/04/19 03:17:31;;;;;;;;;7.00;6.00;;;;;-146.67;100.00;57155.34;5100473;27;61783;-83
2022/04/19 03:19:56;;;;;;;;;6.50;5.75;;;;;-146.67;100.00;57155.34;5085067;28;61715;-83
2022/04/19 03:22:22;;;;;;;;;5.50;5.00;;;;;-146.67;100.00;57155.34;5099926;27;63575;-83
2022/04/19 03:27:43;;;;;;;;;6.50;3.50;;;;;-146.67;100.00;57155.34;5084312;28;61921;-83
2022/04/19 03:30:14;;;;;;;;;5.00;2.25;;;;;-146.67;100.00;57155.34;5084918;28;62210;-83
2022/04/19 03:32:42;;;;;;;;;5.00;5.00;;;;;-146.67;100.00;57155.34;5099623;27;64020;-83
2022/04/19 03:35:08;;;;;;;;;5.75;4.50;;;;;-146.67;100.00;57155.34;5084596;28;61894;-83
2022/04/19 03:37:33;;;;;;;;;6.75;5.25;;;;;-146.67;100.00;57155.34;5084332;28;61694;-82
2022/04/19 03:39:59;;;;;;;;;9.50;5.00;;;;;-146.67;100.00;57155.34;5099349;27;62076;-83
2022/04/19 03:42:24;;;;;;;;;6.50;2.50;;;;;-146.67;100.00;57155.34;5083642;27;61860;-83
2022/04/19 03:44:50;;;;;;;;;5.75;5.00;;;;;-146.67;100.00;57155.34;5084145;27;61699;-82
2022/04/19 03:47:15;;;;;;;;;6.50;4.00;;;;;-146.67;100.00;57155.34;5084500;27;61945;-82
2022/04/19 03:49:44;;;;;;;;;4.75;3.75;;;;;-146.67;100.00;57155.34;5083014;28;61946;-82
2022/04/19 03:52:10;;;;;;;;;6.50;6.00;;;;;-146.67;100.00;57155.34;5082135;28;64688;-82
2022/04/19 03:54:37;;;;;;;;;5.00;5.00;;;;;-146.67;100.00;57155.34;5084235;27;61876;-82
2022/04/19 03:57:04;;;;;;;;;4.75;4.75;;;;;-146.67;100.00;57155.34;5084153;28;62578;-82
2022/04/19 03:59:31;;;;;;;;;6.00;4.00;;;;;-146.67;100.00;57155.34;5082896;28;61938;-82
2022/04/19 04:01:57;;;;;;;;;6.00;4.75;;;;;-146.67;100.00;57155.34;5081176;28;64891;-82
2022/04/19 04:04:22;;;;;;;;;7.75;3.75;;;;;-146.67;100.00;57155.34;5083594;27;62292;-83
2022/04/19 04:06:48;;;;;;;;;6.00;5.25;;;;;-146.67;100.00;57155.34;5082489;28;61968;-82
2022/04/19 04:09:14;;;;;;;;;4.00;4.00;;;;;-146.67;100.00;57155.34;5083837;27;61809;-83
2022/04/19 04:11:39;;;;;;;;;6.00;4.75;;;;;-146.67;100.00;57155.34;5081929;28;63689;-83
2022/04/19 04:14:04;;;;;;;;;4.25;4.25;;;;;-146.67;100.00;57155.34;5083737;27;62004;-83
2022/04/19 04:16:30;;;;;;;;;2.50;2.50;;;;;-146.67;100.00;57155.34;5084027;28;62223;-83
2022/04/19 04:18:55;;;;;;;;;8.00;3.75;;;;;-146.67;100.00;57155.34;5083866;27;62194;-83
2022/04/19 04:21:21;;;;;;;;;5.00;2.50;;;;;-146.67;100.00;57155.34;5083310;27;61712;-83
2022/04/19 04:23:46;;;;;;;;;9.00;5.00;;;;;-146.67;100.00;57155.34;5083466;27;61715;-83
2022/04/19 04:26:11;;;;;;;;;4.75;4.75;;;;;-146.67;100.00;57155.34;5082302;28;62464;-83
2022/04/19 04:28:37;;;;;;;;;9.00;4.50;;;;;-146.67;100.00;57155.34;5083623;27;61839;-82
2022/04/19 04:31:02;;;;;;;;;7.00;4.00;;;;;-146.67;100.00;57155.34;5081480;28;63486;-83
2022/04/19 04:33:28;;;;;;;;;5.50;5.25;;;;;-146.67;100.00;57155.34;5083563;27;61729;-83
2022/04/19 04:35:53;;;;;;;;;1.75;1.75;;;;;-146.67;100.00;57155.34;5083491;27;62069;-83
2022/04/19 04:38:19;;;;;;;;;12.00;6.00;;;;;-146.67;100.00;57155.34;5081890;28;61996;-82
2022/04/19 04:40:44;;;;;;;;;3.00;3.00;;;;;-146.67;100.00;57155.34;5082641;27;63651;-83
2022/04/19 04:43:09;;;;;;;;;7.00;5.00;;;;;-146.67;100.00;57155.34;5083101;27;61947;-82
2022/04/19 04:45:35;;;;;;;;;7.50;5.00;;;;;-146.67;100.00;57155.34;5083349;27;61763;-83
2022/04/19 04:50:44;;;;;;;;;5.00;3.00;;;;;-146.67;100.00;57155.34;5082762;28;61738;-83
2022/04/19 04:53:09;;;;;;;;;6.50;5.00;;;;;-146.67;100.00;57155.34;5098521;27;61987;-82
2022/04/19 04:55:35;;;;;;;;;4.75;3.00;;;;;-146.67;100.00;57155.34;5081933;28;61789;-83
2022/04/19 04:58:01;;;;;;;;;4.50;4.50;;;;;-146.67;100.00;57155.34;5083264;27;62230;-83
2022/04/19 05:00:28;;;;;;;;;7.25;3.00;;;;;-146.67;100.00;57155.34;5081317;28;63925;-82
2022/04/19 05:02:55;;;;;;;;;7.25;3.25;;;;;-146.67;100.00;57155.34;5081593;28;62089;-82
2022/04/19 05:05:20;;;;;;;;;3.00;2.25;;;;;-146.67;100.00;57155.34;5083110;27;62150;-84
2022/04/19 05:07:46;;;;;;;;;4.00;3.00;;;;;-146.67;100.00;57155.34;5082379;27;62135;-83
2022/04/19 05:10:15;;;;;;;;;4.50;3.00;;;;;-146.67;100.00;57155.34;5086534;27;62611;-82
2022/04/19 05:12:40;;;;;;;;;4.00;4.00;;;;;-146.67;100.00;57155.34;5081899;28;62079;-83
2022/04/19 05:15:06;;;;;;;;;4.75;3.25;;;;;-146.67;100.00;57155.34;5082174;27;62243;-83
2022/04/19 05:17:33;;;;;;;;;8.00;3.00;;;;;-146.67;100.00;57155.34;5080074;27;62078;-83
2022/04/19 05:19:58;;;;;;;;;6.00;2.50;;;;;-146.67;100.00;57155.34;5081661;28;61928;-82
2022/04/19 05:22:24;;;;;;;;;6.50;4.00;;;;;-146.67;100.00;57155.34;5082533;28;61805;-82
2022/04/19 05:24:49;;;;;;;;;6.50;4.00;;;;;-146.67;100.00;57155.34;5082692;28;61846;-83
2022/04/19 05:27:15;;;;;;;;;7.75;3.75;;;;;-146.67;100.00;57155.34;5082226;28;61922;-82
2022/04/19 05:29:41;;;;;;;;;4.50;3.00;;;;;-146.67;100.00;57155.34;5081230;28;62221;-83
2022/04/19 05:32:07;;;;;;;;;6.00;6.00;;;;;-146.67;100.00;57155.34;5081567;27;61797;-82
2022/04/19 05:34:32;;;;;;;;;10.00;4.50;;;;;-146.67;100.00;57155.34;5082078;27;62631;-82
2022/04/19 05:36:58;;;;;;;;;4.25;3.50;;;;;-146.67;100.00;57155.34;5097291;27;62447;-82
2022/04/19 05:39:23;;;;;;;;;7.00;4.50;;;;;-146.67;100.00;57155.34;5074101;27;63178;-82
2022/04/19 05:41:49;;;;;;;;;7.25;4.00;;;;;-146.67;100.00;57155.34;5092757;27;62031;-86
2022/04/19 05:44:17;;;;;;;;;5.50;5.50;;;;;-146.67;100.00;57155.34;5096584;27;61838;-81
2022/04/19 05:46:42;;;;;;;;;4.75;3.00;;;;;-146.67;100.00;57155.34;5081442;27;61996;-79
2022/04/19 05:49:08;;;;;;;;;7.00;3.00;;;;;-146.67;100.00;57155.34;5097113;27;63768;-80
2022/04/19 05:51:33;;;;;;;;;6.25;3.00;;;;;-146.67;100.00;57155.34;5081689;27;61971;-80
2022/04/19 05:53:59;;;;;;;;;4.00;3.00;;;;;-146.67;100.00;57155.34;5081289;27;61995;-81
2022/04/19 05:56:25;;;;;;;;;4.00;4.00;;;;;-146.67;100.00;57155.34;5097839;27;62077;-80
2022/04/19 05:58:50;;;;;;;;;8.00;4.00;;;;;-146.67;100.00;57155.34;5081134;27;61991;-81
2022/04/19 06:01:16;;;;;;;;;10.25;5.00;;;;;-146.67;100.00;57155.34;5097705;27;61860;-80
2022/04/19 06:06:25;;;;;;;;;6.50;6.50;;;;;-146.67;100.00;57155.34;5081819;28;61845;-81
2022/04/19 06:08:51;;;;;;;;;10.00;6.50;;;;;-146.67;100.00;57155.34;5096281;27;63876;-80
2022/04/19 06:11:16;;;;;;;;;6.50;6.00;;;;;-146.67;100.00;57155.34;5081978;27;62000;-81
2022/04/19 06:13:42;;;;;;;;;9.75;8.25;;;;;-146.67;100.00;57155.34;5081822;27;61868;-80
2022/04/19 06:16:08;;;;;;;;;13.25;9.25;;;;;-146.67;100.00;57155.34;5097277;27;62188;-77
2022/04/19 06:18:34;;;;;;;;;11.00;6.50;;;;;-146.67;100.00;57155.34;5079700;28;64102;-82
2022/04/19 06:21:00;;;;;;;;;9.00;6.50;;;;;-146.67;100.00;57155.34;5081028;27;61778;-81
2022/04/19 06:23:26;;;;;;;;;11.00;8.00;;;;;-146.67;100.00;57155.34;5081280;27;62158;-82
2022/04/19 06:25:51;;;;;;;;;10.25;9.25;;;;;-146.67;100.00;57155.34;5082601;27;61844;-81
2022/04/19 06:28:17;;;;;;;;;10.00;8.75;;;;;-146.67;100.00;57155.34;5082628;27;62015;-81
2022/04/19 06:30:43;;;;;;;;;15.75;10.25;;;;;-146.67;100.00;57155.34;5084697;27;61711;-82
2022/04/19 06:33:09;;;;;;;;;10.00;6.00;;;;;-146.67;100.00;57155.34;5092110;27;61885;-81
2022/04/19 06:35:34;;;;;;;;;11.25;10.25;;;;;-146.67;100.00;57155.34;5085293;28;61762;-81
2022/04/19 06:38:00;;;;;;;;;17.25;12.00;;;;;-146.67;100.00;57155.34;5084504;27;61954;-81
2022/04/19 06:40:25;;;;;;;;;12.25;10.00;;;;;-146.67;100.00;57155.34;5083853;27;62087;-84
2022/04/19 06:42:51;;;;;;;;;9.00;9.00;;;;;-146.67;100.00;57155.34;5080235;27;62289;-79
2022/04/19 06:45:17;;;;;;;;;15.00;10.00;;;;;-146.67;100.00;57155.34;5080660;27;61897;-80
2022/04/19 06:47:44;;;;;;;;;16.25;10.25;;;;;-146.67;100.00;57155.34;5083184;27;61738;-80
2022/04/19 06:50:10;;;;;;;;;19.50;13.00;;;;;-146.67;100.00;57155.34;5096316;27;62150;-81
2022/04/19 06:52:35;;;;;;;;;13.75;12.25;;;;;-146.67;100.00;57155.34;5100717;27;61823;-80
2022/04/19 06:55:00;;;;;;;;;22.25;12.50;;;;;-146.67;100.00;57155.34;5084949;27;61999;-78
2022/04/19 06:57:26;;;;;;;;;11.75;10.00;;;;;-146.67;100.00;57155.34;5082371;27;61684;-77
2022/04/19 06:59:51;;;;;;;;;13.50;10.75;;;;;-146.67;100.00;57155.34;5084560;27;61759;-78
2022/04/19 07:02:17;;;;;;;;;11.25;10.75;;;;;-146.67;100.00;57155.34;5082990;27;61958;-77
2022/04/19 07:04:43;;;;;;;;;13.00;11.75;;;;;-146.67;100.00;57155.34;5084424;27;61788;-77
2022/04/19 07:07:09;;;;;;;;;17.25;10.75;;;;;-146.67;100.00;57155.34;5084125;27;62006;-81
2022/04/19 07:09:34;;;;;;;;;14.75;12.00;;;;;-146.67;100.00;57155.34;5080117;27;62112;-82
2022/04/19 07:12:00;;;;;;;;;18.25;12.50;;;;;-146.67;100.00;57155.34;5071059;28;61940;-82
2022/04/19 07:14:26;;;;;;;;;11.00;8.00;;;;;-146.67;100.00;57155.34;5078586;28;61938;-83
2022/04/19 07:16:52;;;;;;;;;12.75;10.50;;;;;-146.67;100.00;57155.34;5083055;28;62287;-83
2022/04/19 07:19:18;;;;;;;;;13.00;11.50;;;;;-146.67;100.00;57155.34;5064307;28;61866;-82
2022/04/19 07:27:11;;;;;;;;;12.75;8.75;;;;;-146.67;100.00;57155.34;5080066;28;61970;-82
2022/04/19 07:29:37;;;;;;;;;22.50;13.00;;;;;-146.67;100.00;57155.34;5083328;28;61762;-83
2022/04/19 07:32:02;;;;;;;;;16.25;8.50;;;;;-146.67;100.00;57155.34;5083655;27;61891;-83
2022/04/19 07:34:28;;;;;;;;;14.50;12.00;;;;;-146.67;100.00;57155.34;5083857;28;61754;-82
2022/04/19 07:36:56;;;;;;;;;14.00;12.75;;;;;-146.67;100.00;57155.34;5098708;27;63559;-83
2022/04/19 07:39:21;;;;;;;;;16.00;11.25;;;;;-146.67;100.00;57155.34;5099313;27;61918;-82
2022/04/19 07:41:47;;;;;;;;;12.75;9.75;;;;;-146.67;100.00;57155.34;5082859;28;61733;-82
2022/04/19 07:44:15;;;;;;;;;11.75;10.25;;;;;-146.67;100.00;57155.34;5083997;27;62163;-83
2022/04/19 07:46:42;;;;;;;;;12.25;10.00;;;;;-146.67;100.00;57155.34;5081532;28;64070;-82
2022/04/19 07:49:08;;;;;;;;;16.50;12.25;;;;;-146.67;100.00;57155.34;5083143;27;61957;-82
2022/04/19 07:51:34;;;;;;;;;11.00;10.00;;;;;-146.67;100.00;57155.34;5083254;27;61714;-82
2022/04/19 07:54:00;;;;;;;;;14.50;11.25;;;;;-146.67;100.00;57155.34;5083401;27;61797;-82
2022/04/19 07:56:26;;;;;;;;;13.50;11.25;;;;;-146.67;100.00;57155.34;5095303;27;63679;-82
2022/04/19 07:58:52;;;;;;;;;13.75;11.75;;;;;-146.67;100.00;57155.34;5083059;27;61953;-82
2022/04/19 08:01:18;;;;;;;;;13.25;8.00;;;;;-146.67;100.00;57155.34;5083772;28;61966;-83
2022/04/19 08:03:44;;;;;;;;;10.75;10.50;;;;;-146.67;100.00;57155.34;5099473;27;61859;-82
2022/04/19 08:06:10;;;;;;;;;17.75;14.00;;;;;-146.67;100.00;57155.34;5098495;27;63672;-83
2022/04/19 08:08:36;;;;;;;;;16.50;12.75;;;;;-146.67;100.00;57155.34;5083133;28;61851;-82
2022/04/19 08:11:03;;;;;;;;;14.00;10.50;;;;;-146.67;100.00;57155.34;5083146;27;61979;-82
2022/04/19 08:13:29;;;;;;;;;14.75;11.25;;;;;-146.67;100.00;57155.34;5083277;27;61873;-82
2022/04/19 08:15:54;;;;;;;;;17.25;12.75;;;;;-146.67;100.00;57155.34;5098138;27;63663;-82
2022/04/19 08:18:21;;;;;;;;;16.25;12.00;;;;;-146.67;100.00;57155.34;5081845;27;61864;-82
2022/04/19 08:20:47;;;;;;;;;16.00;11.25;;;;;-146.67;100.00;57155.34;5098926;27;61733;-83
2022/04/19 08:23:14;;;;;;;;;14.00;12.50;;;;;-146.67;100.00;57155.34;5083061;27;61752;-83
2022/04/19 08:25:40;;;;;;;;;17.75;14.00;;;;;-146.67;100.00;57155.34;5081839;27;61988;-82
2022/04/19 08:28:07;;;;;;;;;11.50;10.75;;;;;-146.67;100.00;57155.34;5082624;27;61797;-82
2022/04/19 08:30:33;;;;;;;;;16.00;10.50;;;;;-146.67;100.00;57155.34;5082684;27;61904;-81
2022/04/19 08:32:59;;;;;;;;;13.25;10.75;;;;;-146.67;100.00;57155.34;5096162;27;62062;-82
2022/04/19 08:35:25;;;;;;;;;17.50;12.50;;;;;-146.67;100.00;57155.34;5082107;27;62900;-82
2022/04/19 08:37:51;;;;;;;;;20.50;12.75;;;;;-146.67;100.00;57155.34;5097900;27;61845;-83
2022/04/19 08:40:17;;;;;;;;;15.00;11.25;;;;;-146.67;100.00;57155.34;5080728;27;61841;-83
2022/04/19 08:42:44;;;;;;;;;11.50;9.00;;;;;-146.67;100.00;57155.34;5082965;27;62041;-82
2022/04/19 08:45:11;;;;;;;;;11.00;10.75;;;;;-146.67;100.00;57155.34;5098079;27;65042;-83
2022/04/19 08:47:42;;;;;;;;;13.00;11.00;;;;;-146.67;100.00;57155.34;5082924;27;62125;-83
2022/04/19 08:50:11;;;;;;;;;14.25;11.25;;;;;-146.67;100.00;57155.34;5081834;27;61971;-83
2022/04/19 08:52:38;;;;;;;;;16.00;10.75;;;;;-146.67;100.00;57155.34;5082779;27;61786;-82
2022/04/19 08:57:50;;;;;;;;;14.00;9.50;;;;;-146.67;100.00;57155.34;5082510;28;61881;-82
2022/04/19 09:00:16;;;;;;;;;10.50;9.00;;;;;-146.67;100.00;57155.34;5098260;27;61764;-83
2022/04/19 09:02:41;;;;;;;;;14.00;10.75;;;;;-146.67;100.00;57155.34;5082672;27;61857;-78
2022/04/19 09:05:21;;;;;;;;;7.00;7.00;;;;;-146.67;100.00;57155.34;5082027;27;62225;-78
2022/04/19 09:07:50;;;;;;;;;13.75;9.00;;;;;-146.67;100.00;57155.34;5082156;27;61701;-82
2022/04/19 09:10:31;;;;;;;;;8.25;6.25;;;;;-146.67;100.00;57155.34;5082099;27;61868;-82
2022/04/19 09:13:00;;;;;;;;;8.00;7.00;;;;;-146.67;100.00;57155.34;5079215;28;62188;-82
2022/04/19 09:15:35;;;;;;;;;7.75;6.25;;;;;-146.67;100.00;57155.34;5097058;27;64143;-82
2022/04/19 09:18:01;;;;;;;;;10.25;10.25;;;;;-146.67;100.00;57155.34;5098093;27;61943;-82
2022/04/19 09:20:27;;;;;;;;;10.50;8.50;;;;;-146.67;100.00;57155.34;5082525;27;61640;-82
2022/04/19 09:23:05;;;;;;;;;14.50;8.25;;;;;-146.67;100.00;57155.34;5097725;27;62203;-82
2022/04/19 09:25:32;;;;;;;;;7.75;5.75;;;;;-146.67;100.00;57155.34;5079473;28;62830;-82
2022/04/19 09:27:59;;;;;;;;;12.50;10.00;;;;;-146.67;100.00;57155.34;5097263;27;61933;-81
2022/04/19 09:30:29;;;;;;;;;20.75;9.00;;;;;-146.67;100.00;57155.34;5097930;27;61817;-82
2022/04/19 09:33:08;;;;;;;;;13.75;12.00;;;;;-146.67;100.00;57155.34;5082070;27;62050;-82
2022/04/19 09:35:49;;;;;;;;;12.50;11.00;;;;;-146.67;100.00;57155.34;5097433;27;63949;-82
2022/04/19 09:38:16;;;;;;;;;13.25;9.25;;;;;-146.67;100.00;57155.34;5081438;27;61841;-83
2022/04/19 09:40:44;;;;;;;;;9.75;9.75;;;;;-146.67;100.00;57155.34;5079826;27;61921;-82
2022/04/19 09:43:16;;;;;;;;;8.75;7.00;;;;;-146.67;100.00;57155.34;5081945;27;61889;-82
2022/04/19 09:45:56;;;;;;;;;13.50;10.00;;;;;-146.67;100.00;57155.34;5097054;27;63981;-83
2022/04/19 09:48:30;;;;;;;;;12.50;10.50;;;;;-146.67;100.00;57155.34;5095454;27;61744;-83
2022/04/19 09:51:03;;;;;;;;;10.75;10.75;;;;;-146.67;100.00;57155.34;5081469;27;61984;-82
2022/04/19 09:53:42;;;;;;;;;9.75;9.75;;;;;-146.67;100.00;57155.34;5082406;27;61958;-82
2022/04/19 09:56:11;;;;;;;;;18.25;10.75;;;;;-146.67;100.00;57155.34;5081070;27;61817;-83
2022/04/19 09:58:38;;;;;;;;;14.25;11.50;;;;;-146.67;100.00;57155.34;5097586;27;61978;-84
2022/04/19 10:01:04;;;;;;;;;15.00;10.50;;;;;-146.67;100.00;57155.34;5082457;28;61960;-83
2022/04/19 10:09:02;;;;;;;;;12.25;9.75;;;;;-146.67;100.00;57155.34;5082941;27;62084;-83
2022/04/19 10:11:28;;;;;;;;;13.00;9.50;;;;;-146.67;100.00;57155.34;5084942;27;62085;-83
2022/04/19 10:13:55;;;;;;;;;11.00;11.00;;;;;-146.67;100.00;57155.34;5089352;27;61955;-83
2022/04/19 10:16:22;;;;;;;;;12.25;10.25;;;;;-146.67;100.00;57155.34;5082845;28;63587;-83
2022/04/19 10:18:47;;;;;;;;;17.75;11.75;;;;;-146.67;100.00;57155.34;5100413;27;61810;-84
2022/04/19 10:21:17;;;;;;;;;16.75;13.50;;;;;-146.67;100.00;57155.34;5084878;28;61733;-83
2022/04/19 10:23:45;;;;;;;;;13.25;13.00;;;;;-146.67;100.00;57155.34;5085583;27;62003;-83
2022/04/19 10:26:28;;;;;;;;;19.75;12.00;;;;;-146.67;100.00;57155.34;5084459;27;61875;-83
2022/04/19 10:28:55;;;;;;;;;13.50;13.50;;;;;-146.67;100.00;57155.34;5084460;27;62193;-83
2022/04/19 10:31:26;;;;;;;;;13.75;12.25;;;;;-146.67;100.00;57155.34;5083806;28;62015;-82
2022/04/19 10:33:53;;;;;;;;;13.50;12.75;;;;;-146.67;100.00;57155.34;5085090;27;61904;-83
2022/04/19 10:36:38;;;;;;;;;17.25;12.50;;;;;-146.67;100.00;57155.34;5084183;27;61794;-82
2022/04/19 10:39:13;;;;;;;;;14.50;12.00;;;;;-146.67;100.00;57155.34;5078581;28;61806;-83
2022/04/19 10:41:52;;;;;;;;;15.75;13.00;;;;;-146.67;100.00;57155.34;5083200;28;61970;-83
2022/04/19 10:44:35;;;;;;;;;14.50;12.25;;;;;-146.67;100.00;57155.34;5083556;28;61848;-83
2022/04/19 10:47:19;;;;;;;;;21.00;13.00;;;;;-146.67;100.00;57155.34;5082734;28;63852;-82
2022/04/19 10:50:06;;;;;;;;;11.75;11.00;;;;;-146.67;100.00;57155.34;5085044;27;61734;-82
2022/04/19 10:52:40;;;;;;;;;18.75;14.00;;;;;-146.67;100.00;57155.34;5084618;28;61838;-82
2022/04/19 10:55:19;;;;;;;;;15.00;12.75;;;;;-146.67;100.00;57155.34;5084467;27;61857;-83
2022/04/19 10:58:06;;;;;;;;;15.50;13.00;;;;;-146.67;100.00;57155.34;5086749;27;62153;-81
2022/04/19 11:00:41;;;;;;;;;16.50;12.00;;;;;-146.67;100.00;57155.34;5089660;27;61675;-81
2022/04/19 11:03:09;;;;;;;;;5.50;4.00;;;;;-146.67;100.00;57155.34;5082769;28;61741;-82
2022/04/19 11:05:55;;;;;;;;;15.00;14.50;;;;;-146.67;100.00;57155.34;5084706;27;61695;-83
2022/04/19 11:08:26;;;;;;;;;12.50;12.25;;;;;-146.67;100.00;57155.34;5081993;28;64170;-82
2022/04/19 11:10:52;;;;;;;;;14.00;12.50;;;;;-146.67;100.00;57155.34;5083613;27;61943;-87
2022/04/19 11:13:29;;;;;;;;;16.75;13.00;;;;;-146.67;100.00;57155.34;5083922;27;61878;-84
2022/04/19 11:16:07;;;;;;;;;14.75;11.50;;;;;-146.67;100.00;57155.34;5100435;27;62145;-83
2022/04/19 11:18:33;;;;;;;;;14.75;13.50;;;;;-146.67;100.00;57155.34;5083500;28;62057;-78
2022/04/19 11:21:12;;;;;;;;;16.75;15.75;;;;;-146.67;100.00;57155.34;5082785;27;61723;-78
2022/04/19 11:23:46;;;;;;;;;15.25;14.25;;;;;-146.67;100.00;57155.34;5097626;27;61814;-77
2022/04/19 11:26:26;;;;;;;;;12.00;12.00;;;;;-146.67;100.00;57155.34;5081830;27;61834;-77
2022/04/19 11:29:10;;;;;;;;;13.50;11.25;;;;;-146.67;100.00;57155.34;5098645;27;64090;-77